Humboldt Bay — A8OL4 — position and weather

sailwx.info

Track history (hours):
 
Tides and Currents Weather Stations Pressure Air Temp Water Temp Dewpoint Dewpoint Depression Visibility Wind Speed Wind Dir Waves Ship Positions

Humboldt Bay

Last reported at 2015-May-01 17:23 UTC. Time now 2015-May-26 09:46 UTC.
Position N 57°47' E 010°44'.
Warning: this ship's position is 24 days out of date.

Length 147 m; draft 6.1 m.

Type: Cargo ship. MMSI: 636013649.

Date/timePositionNaut miles runAvg speedWind from/ knotsBaromVisibWave heightAir tempDewpointWater temp
2015-May-01 17:23N 57°47' E 010°44'  
2015-Apr-22 03:27N 49°57' W 003°11'1919.5
2015-Apr-22 02:29N 50°03' W 002°43'1819.0
2015-Apr-22 01:33N 50°07' W 002°16'1817.3
2015-Apr-22 00:29N 50°12' W 001°49'1614.9
2015-Apr-21 23:24N 50°16' W 001°24'1813.7
2015-Apr-21 22:07N 50°22' W 000°58'813.6
2015-Apr-21 21:33N 50°25' W 000°47'1514.7
2015-Apr-21 20:31N 50°27' W 000°24'1617.0
2015-Apr-21 19:34N 50°31' E 000°01'1818.4
2015-Apr-21 18:34N 50°37' E 000°29'1918.5
2015-Apr-21 17:34N 50°47' E 000°54'  
Track history (hours):
 
Tides and Currents Weather Stations Pressure Air Temp Water Temp Dewpoint Dewpoint Depression Visibility Wind Speed Wind Dir Waves Ship Positions

Humboldt Bay

Last reported at 2015-May-01 17:23 UTC. Time now 2015-May-26 09:46 UTC.
Position N 57°47' E 010°44'.
Warning: this ship's position is 24 days out of date.

Length 147 m; draft 6.1 m.

Type: Cargo ship. MMSI: 636013649.

Date/timePositionNaut miles runAvg speedWind from/ knotsBaromVisibWave heightAir tempDewpointWater temp
2015-May-01 17:23N 57°47' E 010°44'  
2015-Apr-22 03:27N 49°57' W 003°11'1919.5
2015-Apr-22 02:29N 50°03' W 002°43'1819.0
2015-Apr-22 01:33N 50°07' W 002°16'1817.3
2015-Apr-22 00:29N 50°12' W 001°49'1614.9
2015-Apr-21 23:24N 50°16' W 001°24'1813.7
2015-Apr-21 22:07N 50°22' W 000°58'813.6
2015-Apr-21 21:33N 50°25' W 000°47'1514.7
2015-Apr-21 20:31N 50°27' W 000°24'1617.0
2015-Apr-21 19:34N 50°31' E 000°01'1818.4
2015-Apr-21 18:34N 50°37' E 000°29'1918.5
2015-Apr-21 17:34N 50°47' E 000°54'  

Dump ship's entire track history